createdAt,value
2018-07-07T00:00:22.497Z,14.91
2018-07-07T00:01:22.473Z,14.85
2018-07-07T00:02:22.449Z,14.87
2018-07-07T00:03:22.422Z,14.82
2018-07-07T00:04:22.400Z,14.90
2018-07-07T00:05:22.370Z,14.82
2018-07-07T00:06:22.344Z,14.87
2018-07-07T00:07:22.319Z,14.86
2018-07-07T00:08:22.296Z,14.85
2018-07-07T00:09:22.271Z,14.86
2018-07-07T00:10:22.244Z,14.85
2018-07-07T00:11:22.219Z,14.85
2018-07-07T00:12:22.193Z,14.86
2018-07-07T00:13:22.168Z,14.86
2018-07-07T00:14:22.142Z,14.91
2018-07-07T00:15:22.122Z,14.85
2018-07-07T00:16:22.093Z,14.91
2018-07-07T00:17:22.064Z,14.90
2018-07-07T00:18:22.038Z,14.85
2018-07-07T00:19:22.013Z,14.90
2018-07-07T00:20:21.992Z,14.80
2018-07-07T00:21:21.966Z,14.74
2018-07-07T00:22:21.948Z,14.79
2018-07-07T00:23:21.912Z,14.82
2018-07-07T00:24:21.887Z,14.67
2018-07-07T00:25:21.865Z,14.69
2018-07-07T00:26:21.834Z,14.72
2018-07-07T00:27:21.808Z,14.74
2018-07-07T00:28:21.785Z,14.71
2018-07-07T00:29:21.960Z,14.80
2018-07-07T00:30:21.735Z,14.83
2018-07-07T00:31:21.706Z,14.82
2018-07-07T00:32:21.685Z,14.72
2018-07-07T00:33:21.656Z,14.69
2018-07-07T00:34:21.632Z,14.71
2018-07-07T00:35:21.606Z,14.72
2018-07-07T00:36:21.579Z,14.71
2018-07-07T00:37:22.768Z,14.78
2018-07-07T00:38:21.528Z,14.74
2018-07-07T00:39:21.503Z,14.74
2018-07-07T00:40:21.477Z,14.79
2018-07-07T00:41:21.452Z,14.74
2018-07-07T00:42:21.428Z,14.85
2018-07-07T00:43:21.401Z,14.67
2018-07-07T00:44:21.375Z,14.79
2018-07-07T00:45:21.351Z,14.80
2018-07-07T00:46:21.326Z,14.86
2018-07-07T00:47:21.305Z,14.90
2018-07-07T00:48:21.274Z,14.85
2018-07-07T00:49:22.098Z,14.83
2018-07-07T00:50:21.221Z,14.72
2018-07-07T00:51:21.195Z,14.78
2018-07-07T00:52:21.170Z,14.71
2018-07-07T00:53:21.151Z,14.87
2018-07-07T00:54:21.146Z,14.93
2018-07-07T00:55:21.096Z,14.85
2018-07-07T00:56:21.070Z,14.80
2018-07-07T00:57:21.043Z,14.82
2018-07-07T00:58:21.016Z,14.83
2018-07-07T00:59:20.992Z,14.87
2018-07-07T01:00:20.966Z,14.83
2018-07-07T01:01:20.941Z,14.78
2018-07-07T01:02:20.915Z,14.72
2018-07-07T01:03:20.889Z,14.71
2018-07-07T01:04:20.871Z,14.78
2018-07-07T01:05:20.844Z,14.72
2018-07-07T01:06:21.019Z,14.72
2018-07-07T01:07:20.939Z,14.69
2018-07-07T01:08:20.764Z,14.69
2018-07-07T01:09:20.770Z,14.72
2018-07-07T01:10:20.712Z,14.72
2018-07-07T01:11:20.685Z,14.69
2018-07-07T01:12:20.659Z,14.71
2018-07-07T01:13:20.637Z,14.72
2018-07-07T01:14:20.612Z,14.72
2018-07-07T01:15:20.589Z,14.78
2018-07-07T01:16:20.559Z,14.74
2018-07-07T01:17:20.533Z,14.72
2018-07-07T01:18:20.512Z,14.69
2018-07-07T01:19:20.484Z,14.72
2018-07-07T01:20:20.467Z,14.80
2018-07-07T01:21:20.430Z,14.71
2018-07-07T01:22:20.405Z,14.75
2018-07-07T01:23:20.379Z,14.74
2018-07-07T01:24:20.354Z,14.79
2018-07-07T01:25:20.343Z,14.69
2018-07-07T01:26:20.305Z,14.69
2018-07-07T01:27:20.288Z,14.72
2018-07-07T01:28:20.258Z,14.69
2018-07-07T01:29:20.236Z,14.72
2018-07-07T01:30:20.351Z,14.59
2018-07-07T01:31:20.175Z,14.72
2018-07-07T01:32:20.149Z,14.64
2018-07-07T01:33:20.125Z,14.71
2018-07-07T01:34:20.103Z,14.60
2018-07-07T01:35:20.073Z,14.71
2018-07-07T01:36:20.050Z,14.74
2018-07-07T01:37:20.025Z,14.72
2018-07-07T01:38:20.003Z,14.64
2018-07-07T01:39:19.973Z,14.72
2018-07-07T01:40:19.951Z,14.72
2018-07-07T01:41:19.921Z,14.79
2018-07-07T01:42:19.896Z,14.74
2018-07-07T01:43:19.874Z,14.67
2018-07-07T01:44:19.844Z,14.64
2018-07-07T01:45:19.825Z,14.69
2018-07-07T01:46:19.794Z,14.67
2018-07-07T01:47:19.769Z,14.67
2018-07-07T01:48:19.744Z,14.64
2018-07-07T01:49:19.717Z,14.59
2018-07-07T01:50:19.690Z,14.61
2018-07-07T01:51:19.665Z,14.64
2018-07-07T01:52:19.641Z,14.67
2018-07-07T01:53:19.620Z,14.69
2018-07-07T01:54:19.592Z,14.82
2018-07-07T01:55:19.565Z,14.80
2018-07-07T01:56:19.539Z,14.69
2018-07-07T01:57:19.515Z,14.71
2018-07-07T01:58:19.487Z,14.72
2018-07-07T01:59:19.961Z,14.72
2018-07-07T02:00:19.439Z,14.82
2018-07-07T02:01:19.413Z,14.72
2018-07-07T02:02:19.389Z,14.75
2018-07-07T02:03:19.361Z,14.75
2018-07-07T02:04:19.338Z,14.63
2018-07-07T02:05:19.311Z,14.61
2018-07-07T02:06:19.285Z,14.67
2018-07-07T02:07:19.258Z,14.60
2018-07-07T02:08:19.233Z,14.66
2018-07-07T02:09:19.206Z,14.59
2018-07-07T02:10:19.186Z,14.57
2018-07-07T02:11:19.155Z,14.63
2018-07-07T02:12:19.129Z,14.67
2018-07-07T02:13:19.107Z,14.67
2018-07-07T02:14:19.081Z,14.61
2018-07-07T02:15:19.055Z,14.71
2018-07-07T02:16:19.034Z,14.69
2018-07-07T02:17:19.003Z,14.69
2018-07-07T02:18:18.977Z,14.79
2018-07-07T02:19:18.952Z,14.64
2018-07-07T02:20:18.924Z,14.61
2018-07-07T02:21:18.900Z,14.66
2018-07-07T02:22:18.875Z,14.64
2018-07-07T02:23:18.856Z,14.64
2018-07-07T02:24:18.823Z,14.74
2018-07-07T02:25:18.803Z,14.74
2018-07-07T02:26:18.776Z,14.74
2018-07-07T02:27:18.750Z,14.79
2018-07-07T02:28:18.725Z,14.72
2018-07-07T02:29:18.847Z,14.74
2018-07-07T02:30:18.672Z,14.69
2018-07-07T02:31:18.648Z,14.71
2018-07-07T02:32:18.623Z,14.78
2018-07-07T02:33:18.597Z,14.71
2018-07-07T02:34:18.575Z,14.78
2018-07-07T02:35:18.695Z,14.74
2018-07-07T02:36:18.519Z,14.69
2018-07-07T02:37:18.497Z,14.80
2018-07-07T02:38:18.477Z,14.79
2018-07-07T02:39:18.446Z,14.85
2018-07-07T02:40:18.419Z,14.69
2018-07-07T02:41:18.390Z,14.82
2018-07-07T02:42:18.365Z,14.69
2018-07-07T02:43:18.339Z,14.78
2018-07-07T02:44:18.315Z,14.74
2018-07-07T02:45:18.290Z,14.69
2018-07-07T02:46:18.404Z,14.72
2018-07-07T02:47:18.238Z,14.82
2018-07-07T02:48:18.213Z,14.83
2018-07-07T02:49:18.190Z,14.74
2018-07-07T02:50:18.164Z,14.69
2018-07-07T02:51:18.136Z,14.80
2018-07-07T02:52:18.112Z,14.86
2018-07-07T02:53:18.084Z,14.74
2018-07-07T02:54:18.061Z,14.67
2018-07-07T02:55:18.033Z,14.72
2018-07-07T02:56:18.008Z,14.71
2018-07-07T02:57:18.187Z,14.72
2018-07-07T02:58:17.959Z,14.72
2018-07-07T02:59:17.933Z,14.71
2018-07-07T03:00:17.914Z,14.82
2018-07-07T03:01:17.896Z,14.71
2018-07-07T03:02:17.855Z,14.79
2018-07-07T03:03:17.894Z,14.87
2018-07-07T03:04:17.842Z,14.82
2018-07-07T03:05:17.781Z,14.72
2018-07-07T03:06:17.755Z,14.64
2018-07-07T03:07:17.729Z,14.61
2018-07-07T03:08:17.705Z,14.75
2018-07-07T03:09:17.681Z,14.64
2018-07-07T03:10:17.655Z,14.66
2018-07-07T03:11:17.628Z,14.60
2018-07-07T03:12:17.602Z,14.57
2018-07-07T03:13:17.579Z,14.60
2018-07-07T03:14:17.550Z,14.63
2018-07-07T03:15:17.525Z,14.59
2018-07-07T03:16:17.498Z,14.49
2018-07-07T03:17:17.475Z,14.48
2018-07-07T03:18:17.449Z,14.48
2018-07-07T03:19:17.424Z,14.59
2018-07-07T03:20:17.401Z,14.56
2018-07-07T03:21:17.371Z,14.61
2018-07-07T03:22:17.348Z,14.66
2018-07-07T03:23:17.320Z,14.78
2018-07-07T03:24:17.294Z,14.78
2018-07-07T03:25:17.269Z,14.74
2018-07-07T03:26:17.244Z,14.71
2018-07-07T03:27:17.218Z,14.69
2018-07-07T03:28:17.193Z,14.72
2018-07-07T03:29:17.195Z,14.74
2018-07-07T03:30:17.149Z,14.72
2018-07-07T03:31:17.118Z,14.79
2018-07-07T03:32:17.096Z,14.74
2018-07-07T03:33:17.069Z,14.75
2018-07-07T03:34:17.042Z,14.71
2018-07-07T03:35:17.015Z,14.67
2018-07-07T03:36:16.989Z,14.64
2018-07-07T03:37:16.967Z,14.69
2018-07-07T03:38:16.943Z,14.69
2018-07-07T03:39:16.915Z,14.83
2018-07-07T03:40:16.889Z,14.83
2018-07-07T03:41:16.865Z,14.93
2018-07-07T03:42:16.899Z,14.85
2018-07-07T03:43:16.813Z,14.82
2018-07-07T03:44:16.789Z,14.85
2018-07-07T03:45:16.761Z,14.80
2018-07-07T03:46:16.743Z,14.83
2018-07-07T03:47:16.709Z,14.93
2018-07-07T03:48:16.685Z,14.91
2018-07-07T03:49:16.687Z,14.90
2018-07-07T03:50:16.635Z,14.78
2018-07-07T03:51:16.611Z,14.85
2018-07-07T03:52:16.586Z,14.86
2018-07-07T03:53:16.558Z,14.83
2018-07-07T03:54:16.534Z,14.78
2018-07-07T03:55:16.511Z,14.85
2018-07-07T03:56:16.482Z,14.95
2018-07-07T03:57:16.458Z,14.79
2018-07-07T03:58:16.434Z,14.91
2018-07-07T03:59:16.407Z,14.95
2018-07-07T04:00:16.382Z,14.97
2018-07-07T04:01:16.358Z,14.97
2018-07-07T04:02:16.330Z,14.94
2018-07-07T04:03:16.304Z,14.98
2018-07-07T04:04:16.279Z,14.97
2018-07-07T04:05:16.257Z,15.12
2018-07-07T04:06:16.231Z,15.25
2018-07-07T04:07:16.246Z,15.48
2018-07-07T04:08:16.181Z,15.66
2018-07-07T04:09:16.158Z,15.74
2018-07-07T04:10:16.129Z,15.76
2018-07-07T04:11:16.103Z,15.80
2018-07-07T04:12:16.080Z,15.74
2018-07-07T04:13:16.053Z,15.76
2018-07-07T04:14:16.179Z,15.86
2018-07-07T04:15:16.007Z,15.96
2018-07-07T04:16:15.981Z,15.98
2018-07-07T04:17:15.959Z,16.03
2018-07-07T04:18:15.932Z,15.98
2018-07-07T04:19:15.908Z,15.98
2018-07-07T04:20:15.888Z,15.91
2018-07-07T04:21:15.857Z,16.03
2018-07-07T04:22:15.834Z,15.92
2018-07-07T04:23:15.809Z,15.91
2018-07-07T04:24:15.784Z,15.86
2018-07-07T04:25:15.763Z,15.89
2018-07-07T04:26:15.738Z,15.95
2018-07-07T04:27:15.712Z,15.96
2018-07-07T04:28:15.691Z,16.03
2018-07-07T04:29:15.666Z,15.98
2018-07-07T04:30:15.644Z,16.01
2018-07-07T04:31:15.621Z,16.11
2018-07-07T04:32:15.594Z,16.17
2018-07-07T04:33:15.571Z,16.23
2018-07-07T04:34:15.546Z,16.17
2018-07-07T04:35:15.522Z,16.18
2018-07-07T04:36:15.499Z,16.34
2018-07-07T04:37:15.477Z,16.27
2018-07-07T04:38:15.505Z,16.18
2018-07-07T04:39:15.430Z,16.18
2018-07-07T04:40:15.405Z,16.14
2018-07-07T04:41:15.382Z,16.34
2018-07-07T04:42:15.359Z,16.44
2018-07-07T04:43:15.333Z,16.44
2018-07-07T04:44:15.315Z,16.32
2018-07-07T04:45:15.293Z,16.37
2018-07-07T04:46:15.267Z,16.30
2018-07-07T04:47:15.245Z,16.41
2018-07-07T04:48:15.219Z,16.60
2018-07-07T04:49:15.198Z,16.85
2018-07-07T04:50:15.176Z,16.99
2018-07-07T04:51:15.159Z,16.98
2018-07-07T04:52:15.134Z,16.92
2018-07-07T04:53:15.106Z,17.14
2018-07-07T04:54:15.082Z,17.10
2018-07-07T04:55:15.059Z,17.10
2018-07-07T04:56:15.038Z,17.09
2018-07-07T04:57:15.016Z,17.05
2018-07-07T04:58:14.992Z,17.18
2018-07-07T04:59:14.968Z,17.36
2018-07-07T05:00:14.947Z,17.42
2018-07-07T05:01:15.075Z,17.68
2018-07-07T05:02:14.905Z,17.58
2018-07-07T05:03:14.879Z,17.60
2018-07-07T05:04:14.860Z,17.55
2018-07-07T05:05:14.833Z,17.83
2018-07-07T05:06:14.815Z,17.63
2018-07-07T05:07:14.788Z,17.30
2018-07-07T05:08:14.765Z,17.36
2018-07-07T05:09:14.750Z,17.22
2018-07-07T05:10:14.725Z,17.42
2018-07-07T05:11:14.705Z,17.73
2018-07-07T05:12:14.682Z,17.87
2018-07-07T05:13:14.656Z,17.89
2018-07-07T05:14:14.633Z,17.99
2018-07-07T05:15:14.816Z,17.94
2018-07-07T05:16:14.790Z,18.34
2018-07-07T05:17:14.589Z,18.34
2018-07-07T05:18:14.545Z,18.11
2018-07-07T05:19:14.572Z,17.94
2018-07-07T05:20:14.501Z,18.01
2018-07-07T05:21:14.481Z,18.25
2018-07-07T05:22:14.460Z,18.04
2018-07-07T05:23:14.437Z,17.77
2018-07-07T05:24:14.414Z,17.63
2018-07-07T05:25:14.391Z,17.94
2018-07-07T05:26:14.369Z,18.34
2018-07-07T05:27:14.349Z,18.01
2018-07-07T05:28:14.327Z,18.29
2018-07-07T05:29:14.306Z,18.23
2018-07-07T05:30:14.288Z,18.25
2018-07-07T05:31:14.265Z,17.86
2018-07-07T05:32:14.244Z,17.77
2018-07-07T05:33:14.224Z,18.20
2018-07-07T05:34:14.201Z,18.54
2018-07-07T05:35:14.187Z,18.78
2018-07-07T05:36:14.162Z,18.54
2018-07-07T05:37:14.157Z,18.28
2018-07-07T05:38:14.113Z,18.57
2018-07-07T05:39:14.091Z,18.34
2018-07-07T05:40:14.070Z,18.53
2018-07-07T05:41:14.052Z,17.95
2018-07-07T05:42:14.031Z,18.28
2018-07-07T05:43:14.015Z,18.38
2018-07-07T05:44:13.989Z,17.84
2018-07-07T05:45:13.964Z,18.01
2018-07-07T05:46:13.945Z,17.98
2018-07-07T05:47:13.923Z,18.01
2018-07-07T05:48:13.903Z,18.01
2018-07-07T05:49:13.891Z,18.32
2018-07-07T05:50:13.860Z,18.36
2018-07-07T05:51:13.839Z,18.13
2018-07-07T05:52:13.820Z,17.89
2018-07-07T05:53:13.801Z,17.87
2018-07-07T05:54:13.783Z,18.31
2018-07-07T05:55:13.759Z,18.53
2018-07-07T05:56:13.943Z,18.65
2018-07-07T05:57:13.921Z,18.83
2018-07-07T05:58:13.695Z,18.54
2018-07-07T05:59:13.675Z,18.32
2018-07-07T06:00:13.855Z,18.54
2018-07-07T06:01:55.989Z,18.35
2018-07-07T06:02:55.769Z,17.89
2018-07-07T06:03:55.748Z,18.01
2018-07-07T06:04:55.727Z,18.10
2018-07-07T06:05:55.708Z,18.32
2018-07-07T06:06:55.686Z,18.34
2018-07-07T06:07:55.668Z,18.65
2018-07-07T06:08:55.648Z,18.62
2018-07-07T06:09:55.629Z,18.29
2018-07-07T06:10:55.603Z,18.41
2018-07-07T06:11:55.582Z,17.95
2018-07-07T06:12:55.565Z,18.34
2018-07-07T06:13:55.543Z,18.60
2018-07-07T06:14:55.525Z,18.93
2018-07-07T06:15:55.503Z,18.79
2018-07-07T06:16:55.483Z,18.86
2018-07-07T06:17:55.464Z,18.66
2018-07-07T06:18:55.443Z,19.05
2018-07-07T06:19:55.423Z,18.94
2018-07-07T06:20:55.406Z,19.07
2018-07-07T06:21:55.380Z,19.01
2018-07-07T06:22:55.359Z,19.05
2018-07-07T06:23:55.340Z,18.32
2018-07-07T06:24:55.321Z,18.82
2018-07-07T06:25:55.302Z,19.16
2018-07-07T06:26:55.289Z,19.38
2018-07-07T06:27:55.261Z,19.32
2018-07-07T06:28:55.241Z,19.25
2018-07-07T06:29:55.221Z,18.41
2018-07-07T06:30:55.201Z,18.59
2018-07-07T06:31:55.185Z,18.57
2018-07-07T06:32:55.161Z,19.12
2018-07-07T06:33:55.344Z,19.25
2018-07-07T06:34:55.125Z,19.47
2018-07-07T06:35:55.101Z,19.47
2018-07-07T06:36:55.290Z,18.89
2018-07-07T06:38:37.419Z,19.23
2018-07-07T06:40:19.557Z,19.43
2018-07-07T06:41:19.335Z,19.49
2018-07-07T06:42:19.314Z,19.49
2018-07-07T06:43:19.297Z,19.62
2018-07-07T06:44:19.278Z,20.23
2018-07-07T06:45:19.259Z,19.98
2018-07-07T06:46:19.441Z,19.60
2018-07-07T06:47:19.218Z,19.64
2018-07-07T06:48:19.202Z,20.04
2018-07-07T06:49:19.382Z,19.39
2018-07-07T06:50:19.161Z,19.92
2018-07-07T06:51:19.145Z,20.38
2018-07-07T06:52:19.124Z,20.00
2018-07-07T06:53:19.111Z,20.35
2018-07-07T06:54:19.087Z,19.90
2018-07-07T06:55:19.069Z,20.17
2018-07-07T06:56:19.057Z,20.19
2018-07-07T06:57:19.034Z,20.40
2018-07-07T06:58:19.214Z,20.34
2018-07-07T06:59:18.999Z,20.91
2018-07-07T07:00:18.975Z,21.34
2018-07-07T07:01:18.956Z,21.52
2018-07-07T07:02:18.938Z,21.70
2018-07-07T07:03:18.970Z,21.18
2018-07-07T07:04:18.904Z,21.05
2018-07-07T07:05:18.887Z,21.03
2018-07-07T07:06:18.872Z,20.72
2018-07-07T07:07:18.850Z,19.90
2018-07-07T07:08:18.832Z,20.54
2018-07-07T07:09:18.815Z,20.66
2018-07-07T07:10:18.795Z,20.79
2018-07-07T07:11:18.777Z,20.07
2018-07-07T07:12:18.761Z,19.75
2018-07-07T07:13:18.742Z,19.15
2018-07-07T07:14:18.728Z,19.34
2018-07-07T07:15:18.712Z,18.87
2018-07-07T07:16:18.694Z,18.62
2018-07-07T07:17:18.674Z,19.64
2018-07-07T07:18:18.658Z,19.50
2018-07-07T07:19:18.636Z,19.98
2018-07-07T07:20:18.619Z,20.51
2018-07-07T07:21:18.600Z,20.87
2018-07-07T07:22:18.580Z,20.66
2018-07-07T07:23:18.569Z,20.01
2018-07-07T07:24:18.547Z,19.67
2018-07-07T07:25:18.529Z,20.27
2018-07-07T07:26:18.557Z,20.57
2018-07-07T07:27:18.495Z,20.79
2018-07-07T07:28:18.481Z,20.54
2018-07-07T07:29:18.458Z,20.57
2018-07-07T07:30:18.642Z,20.05
2018-07-07T07:31:18.428Z,19.61
2018-07-07T07:32:18.405Z,19.65
2018-07-07T07:33:18.386Z,19.67
2018-07-07T07:34:18.571Z,20.05
2018-07-07T07:35:18.390Z,20.72
2018-07-07T07:36:18.336Z,21.12
2018-07-07T07:37:18.526Z,21.38
2018-07-07T07:38:18.502Z,22.19
2018-07-07T07:39:21.106Z,22.72
2018-07-07T07:44:49.234Z,20.46
2018-07-07T07:45:49.219Z,20.72
2018-07-07T07:46:50.413Z,20.79
2018-07-07T07:47:48.987Z,20.83
2018-07-07T07:48:48.968Z,20.34
2018-07-07T07:49:48.950Z,20.37
2018-07-07T07:50:48.934Z,20.04
2018-07-07T07:51:48.919Z,20.60
2018-07-07T07:52:48.983Z,20.26
2018-07-07T07:53:48.882Z,20.30
2018-07-07T07:54:48.864Z,21.03
2018-07-07T07:55:48.854Z,21.42
2018-07-07T07:56:48.884Z,21.03
2018-07-07T07:57:48.816Z,21.45
2018-07-07T07:58:48.800Z,20.96
2018-07-07T07:59:48.784Z,20.88
2018-07-07T08:00:48.770Z,20.83
2018-07-07T08:01:48.751Z,21.09
2018-07-07T08:02:48.734Z,21.48
2018-07-07T08:03:48.717Z,20.23
2018-07-07T08:04:48.751Z,20.87
2018-07-07T08:05:48.684Z,21.15
2018-07-07T08:06:48.667Z,20.85
2018-07-07T08:07:48.663Z,20.58
2018-07-07T08:08:48.643Z,21.08
2018-07-07T08:09:48.826Z,21.01
2018-07-07T08:10:48.604Z,20.38
2018-07-07T08:11:48.587Z,20.69
2018-07-07T08:12:48.568Z,20.78
2018-07-07T08:13:48.758Z,21.22
2018-07-07T08:14:48.538Z,21.45
2018-07-07T08:15:48.726Z,20.48
2018-07-07T08:16:48.505Z,20.85
2018-07-07T08:17:48.693Z,20.63
2018-07-07T08:18:49.080Z,20.58
2018-07-07T08:19:48.660Z,21.01
2018-07-07T08:20:48.445Z,21.09
2018-07-07T08:21:48.424Z,20.78
2018-07-07T08:22:48.434Z,21.43
2018-07-07T08:23:48.390Z,21.30
2018-07-07T08:24:48.375Z,21.75
2018-07-07T08:25:48.560Z,20.90
2018-07-07T08:26:48.342Z,21.34
2018-07-07T08:27:48.533Z,21.93
2018-07-07T08:28:48.316Z,21.98
2018-07-07T08:29:48.295Z,21.56
2018-07-07T08:30:48.280Z,21.79
2018-07-07T08:31:48.474Z,21.93
2018-07-07T08:32:48.452Z,22.02
2018-07-07T08:33:48.242Z,21.45
2018-07-07T08:34:48.218Z,21.05
2018-07-07T08:35:48.200Z,21.12
2018-07-07T08:36:48.185Z,20.76
2018-07-07T08:37:48.177Z,21.00
2018-07-07T08:38:48.153Z,21.48
2018-07-07T08:39:48.139Z,21.30
2018-07-07T08:40:48.129Z,21.70
2018-07-07T08:41:48.119Z,21.79
2018-07-07T08:42:48.295Z,21.81
2018-07-07T08:43:48.278Z,21.89
2018-07-07T08:44:48.428Z,22.01
2018-07-07T08:45:48.250Z,22.29
2018-07-07T08:46:48.036Z,22.33
2018-07-07T08:47:48.218Z,21.85
2018-07-07T08:48:48.005Z,20.88
2018-07-07T08:49:48.186Z,20.82
2018-07-07T08:50:48.180Z,20.60
2018-07-07T08:51:48.155Z,20.87
2018-07-07T08:52:47.943Z,21.48
2018-07-07T08:53:47.922Z,21.55
2018-07-07T08:54:47.906Z,21.36
2018-07-07T08:55:47.898Z,21.40
2018-07-07T08:56:47.881Z,21.48
2018-07-07T08:57:47.861Z,21.81
2018-07-07T08:58:47.847Z,21.34
2018-07-07T08:59:47.834Z,21.56
2018-07-07T09:00:47.816Z,21.77
2018-07-07T09:01:48.003Z,22.11
2018-07-07T09:02:47.789Z,22.23
2018-07-07T09:03:47.777Z,22.29
2018-07-07T09:04:47.958Z,22.04
2018-07-07T09:05:47.944Z,21.27
2018-07-07T09:06:47.928Z,20.78
2018-07-07T09:07:47.970Z,20.85
2018-07-07T09:08:47.701Z,21.24
2018-07-07T09:09:47.683Z,21.67
2018-07-07T09:10:47.667Z,21.70
2018-07-07T09:11:47.853Z,21.38
2018-07-07T09:12:47.635Z,20.96
2018-07-07T09:13:47.621Z,20.66
2018-07-07T09:14:47.605Z,20.96
2018-07-07T09:15:47.592Z,21.27
2018-07-07T09:16:47.578Z,21.48
2018-07-07T09:17:47.563Z,21.49
2018-07-07T09:18:47.577Z,21.22
2018-07-07T09:19:47.561Z,21.61
2018-07-07T09:20:47.667Z,21.86
2018-07-07T09:21:47.501Z,21.91
2018-07-07T09:22:47.487Z,21.81
2018-07-07T09:23:47.470Z,21.53
2018-07-07T09:24:47.455Z,22.05
2018-07-07T09:25:47.443Z,22.08
2018-07-07T09:26:47.425Z,21.59
2018-07-07T09:27:47.413Z,21.91
2018-07-07T09:28:47.399Z,22.33
2018-07-07T09:30:29.748Z,21.93
2018-07-07T09:31:29.526Z,21.74
2018-07-07T09:32:29.510Z,21.75
2018-07-07T09:33:29.499Z,21.74
2018-07-07T09:34:29.484Z,21.43
2018-07-07T09:35:29.468Z,21.30
2018-07-07T09:36:29.457Z,20.01
2018-07-07T09:37:29.439Z,21.11
2018-07-07T09:38:29.424Z,20.91
2018-07-07T09:39:29.409Z,20.63
2018-07-07T09:40:29.393Z,20.57
2018-07-07T09:41:29.381Z,21.01
2018-07-07T09:42:29.365Z,21.24
2018-07-07T09:43:29.350Z,21.81
2018-07-07T09:44:29.336Z,22.01
2018-07-07T09:45:29.320Z,22.23
2018-07-07T09:46:29.305Z,21.70
2018-07-07T09:47:29.491Z,21.56
2018-07-07T09:48:29.275Z,21.82
2018-07-07T09:49:29.258Z,21.24
2018-07-07T09:50:29.247Z,21.34
2018-07-07T09:51:29.227Z,21.37
2018-07-07T09:52:29.212Z,21.53
2018-07-07T09:53:29.201Z,21.11
2018-07-07T09:54:29.185Z,20.61
2018-07-07T09:55:29.170Z,21.09
2018-07-07T09:56:29.159Z,21.64
2018-07-07T09:57:29.138Z,20.91
2018-07-07T09:58:29.123Z,21.06
2018-07-07T09:59:29.107Z,21.36
2018-07-07T10:00:29.095Z,21.68
2018-07-07T10:01:29.078Z,22.23
2018-07-07T10:02:29.063Z,21.90
2018-07-07T10:03:29.046Z,21.86
2018-07-07T10:04:29.031Z,22.12
2018-07-07T10:05:29.019Z,21.83
2018-07-07T10:06:29.004Z,22.21
2018-07-07T10:07:29.031Z,21.71
2018-07-07T10:08:28.974Z,21.22
2018-07-07T10:09:28.960Z,21.18
2018-07-07T10:10:28.943Z,21.05
2018-07-07T10:11:28.927Z,21.27
2018-07-07T10:12:28.911Z,21.27
2018-07-07T10:13:28.945Z,20.88
2018-07-07T10:14:28.886Z,21.00
2018-07-07T10:15:28.869Z,20.85
2018-07-07T10:16:28.855Z,21.34
2018-07-07T10:17:28.839Z,21.74
2018-07-07T10:18:29.028Z,21.55
2018-07-07T10:19:28.809Z,21.01
2018-07-07T10:20:28.796Z,21.53
2018-07-07T10:21:28.780Z,22.11
2018-07-07T10:22:28.761Z,22.52
2018-07-07T10:23:28.745Z,22.48
2018-07-07T10:24:28.730Z,21.91
2018-07-07T10:25:28.720Z,21.43
2018-07-07T10:26:28.702Z,21.03
2018-07-07T10:27:28.686Z,21.01
2018-07-07T10:28:28.670Z,21.11
2018-07-07T10:29:28.654Z,21.51
2018-07-07T10:30:28.638Z,21.94
2018-07-07T10:31:28.658Z,21.70
2018-07-07T10:32:28.607Z,21.74
2018-07-07T10:33:28.594Z,21.82
2018-07-07T10:34:28.586Z,22.15
2018-07-07T10:35:28.566Z,22.11
2018-07-07T10:36:28.553Z,22.12
2018-07-07T10:37:28.548Z,21.82
2018-07-07T10:38:28.518Z,21.37
2018-07-07T10:39:28.504Z,21.67
2018-07-07T10:40:28.488Z,21.59
2018-07-07T10:41:28.487Z,21.48
2018-07-07T10:42:28.663Z,20.85
2018-07-07T10:43:28.447Z,21.08
2018-07-07T10:44:28.433Z,20.96
2018-07-07T10:45:28.457Z,20.91
2018-07-07T10:46:28.401Z,20.90
2018-07-07T10:47:28.500Z,21.05
2018-07-07T10:48:28.371Z,21.12
2018-07-07T10:49:28.358Z,21.42
2018-07-07T10:50:28.342Z,22.01
2018-07-07T10:51:28.326Z,21.59
2018-07-07T10:52:28.311Z,22.05
2018-07-07T10:53:28.502Z,22.09
2018-07-07T10:54:28.286Z,22.20
2018-07-07T10:55:28.292Z,21.63
2018-07-07T10:56:28.255Z,21.74
2018-07-07T10:57:28.239Z,21.96
2018-07-07T10:58:28.225Z,21.67
2018-07-07T10:59:28.210Z,21.91
2018-07-07T11:00:28.197Z,22.45
2018-07-07T11:01:28.184Z,22.70
2018-07-07T11:02:28.222Z,22.23
2018-07-07T11:03:28.158Z,21.86
2018-07-07T11:04:28.147Z,21.75
2018-07-07T11:05:28.131Z,21.58
2018-07-07T11:06:28.113Z,22.23
2018-07-07T11:07:28.099Z,22.01
2018-07-07T11:08:28.085Z,22.24
2018-07-07T11:09:28.073Z,22.38
2018-07-07T11:10:28.258Z,22.15
2018-07-07T11:11:28.243Z,21.89
2018-07-07T11:12:28.230Z,22.17
2018-07-07T11:13:28.016Z,22.56
2018-07-07T11:14:28.009Z,22.46
2018-07-07T11:15:27.995Z,22.23
2018-07-07T11:16:27.974Z,22.17
2018-07-07T11:17:27.959Z,21.86
2018-07-07T11:18:27.947Z,22.23
2018-07-07T11:19:27.931Z,22.21
2018-07-07T11:20:27.920Z,22.21
2018-07-07T11:21:27.910Z,22.20
2018-07-07T11:22:28.099Z,22.12
2018-07-07T11:23:27.876Z,22.24
2018-07-07T11:24:27.863Z,22.51
2018-07-07T11:25:27.857Z,22.54
2018-07-07T11:26:27.838Z,22.11
2018-07-07T11:27:27.823Z,21.93
2018-07-07T11:28:27.811Z,21.58
2018-07-07T11:29:27.794Z,21.43
2018-07-07T11:30:27.781Z,21.24
2018-07-07T11:31:27.766Z,21.31
2018-07-07T11:32:27.755Z,21.58
2018-07-07T11:33:27.741Z,21.66
2018-07-07T11:34:27.728Z,21.52
2018-07-07T11:35:27.714Z,21.52
2018-07-07T11:36:27.779Z,21.94
2018-07-07T11:37:27.687Z,21.81
2018-07-07T11:38:27.674Z,21.90
2018-07-07T11:39:27.662Z,22.04
2018-07-07T11:40:27.644Z,21.94
2018-07-07T11:41:27.631Z,21.82
2018-07-07T11:42:27.619Z,21.22
2018-07-07T11:43:27.602Z,21.52
2018-07-07T11:44:27.589Z,21.61
2018-07-07T11:45:27.576Z,22.01
2018-07-07T11:46:27.564Z,22.31
2018-07-07T11:47:27.550Z,22.38
2018-07-07T11:48:27.537Z,22.05
2018-07-07T11:49:27.521Z,22.04
2018-07-07T11:50:27.517Z,21.66
2018-07-07T11:51:27.499Z,21.45
2018-07-07T11:52:27.482Z,21.37
2018-07-07T11:53:27.465Z,21.52
2018-07-07T11:54:27.453Z,21.42
2018-07-07T11:55:27.438Z,21.26
2018-07-07T11:56:27.428Z,21.59
2018-07-07T11:57:27.417Z,21.89
2018-07-07T11:58:27.400Z,21.90
2018-07-07T11:59:27.387Z,21.56
2018-07-07T12:00:27.372Z,21.59
2018-07-07T12:01:27.363Z,21.64
2018-07-07T12:02:27.343Z,21.64
2018-07-07T12:03:27.330Z,21.21
2018-07-07T12:04:27.343Z,21.48
2018-07-07T12:05:27.316Z,21.82
2018-07-07T12:06:27.298Z,21.31
2018-07-07T12:07:27.274Z,21.49
2018-07-07T12:08:27.290Z,21.63
2018-07-07T12:09:27.254Z,22.02
2018-07-07T12:10:27.243Z,21.93
2018-07-07T12:11:27.332Z,21.82
2018-07-07T12:12:27.206Z,21.67
2018-07-07T12:13:27.197Z,21.61
2018-07-07T12:14:27.177Z,21.82
2018-07-07T12:15:27.177Z,22.33
2018-07-07T12:16:27.150Z,22.54
2018-07-07T12:17:27.193Z,22.76
2018-07-07T12:18:27.126Z,22.33
2018-07-07T12:19:27.119Z,22.04
2018-07-07T12:20:27.097Z,21.63
2018-07-07T12:21:27.084Z,21.70
2018-07-07T12:22:27.068Z,22.17
2018-07-07T12:23:27.054Z,21.64
2018-07-07T12:24:27.044Z,21.63
2018-07-07T12:25:27.037Z,21.66
2018-07-07T12:26:27.013Z,21.83
2018-07-07T12:27:27.053Z,21.75
2018-07-07T12:28:26.986Z,21.45
2018-07-07T12:29:26.974Z,21.28
2018-07-07T12:30:26.961Z,20.91
2018-07-07T12:31:27.027Z,21.12
2018-07-07T12:32:26.936Z,21.05
2018-07-07T12:33:26.916Z,21.11
2018-07-07T12:34:26.906Z,21.59
2018-07-07T12:35:26.908Z,21.48
2018-07-07T12:36:26.877Z,21.19
2018-07-07T12:37:26.864Z,21.91
2018-07-07T12:38:26.848Z,22.21
2018-07-07T12:39:26.835Z,22.27
2018-07-07T12:40:26.875Z,21.81
2018-07-07T12:41:26.807Z,21.66
2018-07-07T12:42:26.794Z,21.89
2018-07-07T12:43:26.826Z,22.04
2018-07-07T12:44:26.776Z,22.26
2018-07-07T12:45:26.750Z,22.08
2018-07-07T12:46:26.742Z,21.79
2018-07-07T12:47:26.723Z,21.49
2018-07-07T12:48:26.709Z,21.30
2018-07-07T12:49:26.694Z,21.64
2018-07-07T12:50:26.679Z,21.63
2018-07-07T12:51:26.664Z,21.55
2018-07-07T12:52:26.651Z,21.63
2018-07-07T12:53:26.641Z,21.85
2018-07-07T12:54:26.626Z,21.79
2018-07-07T12:55:26.612Z,22.24
2018-07-07T12:56:27.102Z,22.36
2018-07-07T12:58:08.948Z,21.19
2018-07-07T12:59:08.730Z,21.24
2018-07-07T13:00:08.714Z,21.06